createdAt,value
2018-09-25T00:01:49.965Z,6.29
2018-09-25T00:06:49.466Z,6.19
2018-09-25T00:11:49.684Z,6.69
2018-09-25T00:16:49.973Z,6.39
2018-09-25T00:21:50.443Z,6.09
2018-09-25T00:26:50.000Z,5.99
2018-09-25T00:31:50.340Z,5.89
2018-09-25T00:36:49.733Z,6.39
2018-09-25T00:41:49.949Z,6.39
2018-09-25T00:46:50.356Z,5.89
2018-09-25T00:51:49.717Z,5.89
2018-09-25T00:56:49.311Z,5.89
2018-09-25T01:01:49.665Z,5.99
2018-09-25T01:06:50.121Z,5.99
2018-09-25T01:11:49.334Z,5.99
2018-09-25T01:16:49.633Z,5.69
2018-09-25T01:21:50.085Z,5.49
2018-09-25T01:26:49.692Z,5.39
2018-09-25T01:31:49.986Z,5.39
2018-09-25T01:36:50.410Z,6.09
2018-09-25T01:41:49.640Z,5.89
2018-09-25T01:46:49.911Z,5.49
2018-09-25T01:51:50.383Z,5.29
2018-09-25T01:56:49.967Z,5.59
2018-09-25T02:01:50.307Z,5.39
2018-09-25T02:06:49.816Z,5.39
2018-09-25T02:11:49.996Z,5.39
2018-09-25T02:16:50.310Z,5.39
2018-09-25T02:21:49.770Z,5.69
2018-09-25T02:26:49.350Z,5.29
2018-09-25T02:31:49.665Z,5.49
2018-09-25T02:36:55.513Z,5.19
2018-09-25T02:41:50.307Z,5.39
2018-09-25T02:46:49.696Z,5.99
2018-09-25T02:51:50.077Z,5.89
2018-09-25T02:56:49.677Z,5.39
2018-09-25T03:01:49.999Z,5.49
2018-09-25T03:06:49.455Z,5.29
2018-09-25T03:11:49.654Z,4.79
2018-09-25T03:16:49.974Z,4.79
2018-09-25T03:21:49.454Z,5.09
2018-09-25T03:26:50.014Z,4.69
2018-09-25T03:31:49.391Z,4.79
2018-09-25T03:36:49.798Z,5.29
2018-09-25T03:41:49.984Z,5.09
2018-09-25T03:46:50.296Z,4.69
2018-09-25T03:51:49.739Z,4.69
2018-09-25T03:56:49.307Z,4.99
2018-09-25T04:01:49.697Z,4.39
2018-09-25T04:06:50.106Z,4.39
2018-09-25T04:11:49.333Z,4.39
2018-09-25T04:16:49.657Z,4.39
2018-09-25T04:21:50.094Z,4.09
2018-09-25T04:26:49.689Z,4.29
2018-09-25T04:31:49.988Z,4.89
2018-09-25T04:36:49.438Z,4.69
2018-09-25T04:41:49.669Z,4.79
2018-09-25T04:46:49.980Z,4.59
2018-09-25T04:51:49.424Z,4.29
2018-09-25T04:56:50.033Z,3.99
2018-09-25T05:01:49.391Z,4.59
2018-09-25T05:06:49.831Z,4.39
2018-09-25T05:11:49.773Z,3.79
2018-09-25T05:16:50.072Z,4.09
2018-09-25T05:21:49.511Z,4.39
2018-09-25T05:26:50.055Z,4.29
2018-09-25T05:31:49.424Z,4.09
2018-09-25T05:36:49.841Z,3.99
2018-09-25T05:41:50.034Z,3.99
2018-09-25T05:46:49.378Z,3.79
2018-09-25T05:51:49.822Z,3.89
2018-09-25T05:56:49.364Z,4.09
2018-09-25T06:01:49.679Z,4.39
2018-09-25T06:06:50.117Z,4.69
2018-09-25T06:11:49.354Z,4.69
2018-09-25T06:16:49.690Z,4.79
2018-09-25T06:21:50.103Z,4.59
2018-09-25T06:26:49.748Z,4.69
2018-09-25T06:31:50.009Z,4.89
2018-09-25T06:36:49.451Z,5.29
2018-09-25T06:41:49.653Z,5.59
2018-09-25T06:46:49.937Z,5.69
2018-09-25T06:51:49.384Z,5.99
2018-09-25T06:56:49.970Z,5.99
2018-09-25T07:01:50.244Z,6.09
2018-09-25T07:06:49.744Z,5.99
2018-09-25T07:11:49.989Z,5.79
2018-09-25T07:16:49.315Z,6.19
2018-09-25T07:21:49.732Z,6.19
2018-09-25T07:26:49.311Z,6.19
2018-09-25T07:31:49.616Z,6.39
2018-09-25T07:36:50.044Z,6.39
2018-09-25T07:41:49.277Z,6.49
2018-09-25T07:46:49.643Z,6.99
2018-09-25T07:51:50.107Z,7.29
2018-09-25T07:56:49.666Z,7.29
2018-09-25T08:01:49.956Z,7.59
2018-09-25T08:06:49.450Z,8.29
2018-09-25T08:11:49.679Z,8.49
2018-09-25T08:16:49.994Z,9.19
2018-09-25T08:21:49.440Z,9.29
2018-09-25T08:26:50.031Z,9.89
2018-09-25T08:31:49.380Z,9.99
2018-09-25T08:36:49.768Z,10.39
2018-09-25T08:41:49.988Z,10.39
2018-09-25T08:46:49.332Z,10.68
2018-09-25T08:51:49.740Z,10.88
2018-09-25T08:56:49.326Z,11.18
2018-09-25T09:01:49.659Z,10.98
2018-09-25T09:06:50.502Z,10.88
2018-09-25T09:11:49.335Z,11.08
2018-09-25T09:16:49.653Z,11.58
2018-09-25T09:21:50.121Z,11.38
2018-09-25T09:26:49.685Z,11.38
2018-09-25T09:31:49.985Z,12.08
2018-09-25T09:36:49.431Z,12.48
2018-09-25T09:41:50.712Z,12.58
2018-09-25T09:46:49.979Z,13.28
2018-09-25T09:51:49.391Z,13.48
2018-09-25T09:56:49.983Z,12.98
2018-09-25T10:01:49.333Z,13.53
2018-09-25T10:06:49.981Z,13.70
2018-09-25T10:11:49.983Z,13.46
2018-09-25T10:16:49.336Z,13.70
2018-09-25T10:21:49.773Z,13.71
2018-09-25T10:26:49.411Z,13.22
2018-09-25T10:31:49.653Z,12.79
2018-09-25T10:36:50.092Z,12.64
2018-09-25T10:41:49.309Z,12.39
2018-09-25T10:46:49.698Z,12.26
2018-09-25T10:51:50.032Z,12.21
2018-09-25T10:56:49.641Z,12.79
2018-09-25T11:01:49.984Z,13.06
2018-09-25T11:06:49.473Z,13.17
2018-09-25T11:11:49.624Z,13.84
2018-09-25T11:16:49.954Z,13.66
2018-09-25T11:21:49.403Z,14.26
2018-09-25T11:26:49.944Z,14.43
2018-09-25T11:31:49.290Z,14.59
2018-09-25T11:36:49.680Z,14.94
2018-09-25T11:41:49.905Z,14.29
2018-09-25T11:46:50.871Z,13.98
2018-09-25T11:51:49.658Z,14.60
2018-09-25T11:56:50.213Z,13.94
2018-09-25T12:01:49.632Z,13.67
2018-09-25T12:06:49.987Z,13.59
2018-09-25T12:11:50.170Z,13.13
2018-09-25T12:16:49.530Z,13.82
2018-09-25T12:21:49.963Z,13.27
2018-09-25T12:26:49.583Z,12.96
2018-09-25T12:31:49.833Z,12.67
2018-09-25T12:36:50.249Z,12.72
2018-09-25T12:41:49.493Z,12.49
2018-09-25T12:46:49.787Z,12.46
2018-09-25T12:51:50.240Z,12.90
2018-09-25T12:56:49.848Z,12.98
2018-09-25T13:01:50.123Z,12.59
2018-09-25T13:06:49.626Z,13.08
2018-09-25T13:11:49.820Z,13.57
2018-09-25T13:16:50.116Z,13.51
2018-09-25T13:21:49.596Z,13.90
2018-09-25T13:26:50.182Z,13.90
2018-09-25T13:31:49.552Z,13.65
2018-09-25T13:36:49.935Z,14.12
2018-09-25T13:41:50.153Z,14.66
2018-09-25T13:46:49.499Z,13.60
2018-09-25T13:51:49.870Z,13.72
2018-09-25T13:56:50.081Z,13.54
2018-09-25T14:01:49.854Z,13.91
2018-09-25T14:06:50.249Z,14.41
2018-09-25T14:11:49.456Z,14.49
2018-09-25T14:16:49.794Z,14.49
2018-09-25T14:21:50.205Z,15.04
2018-09-25T14:26:49.810Z,14.48
2018-09-25T14:31:50.114Z,14.56
2018-09-25T14:36:49.588Z,14.08
2018-09-25T14:41:49.774Z,15.14
2018-09-25T14:46:50.086Z,14.79
2018-09-25T14:51:49.551Z,14.95
2018-09-25T14:56:50.145Z,14.92
2018-09-25T15:01:49.489Z,14.94
2018-09-25T15:06:49.911Z,14.76
2018-09-25T15:11:50.304Z,14.10
2018-09-25T15:16:49.492Z,14.42
2018-09-25T15:21:51.106Z,13.82
2018-09-25T15:26:49.924Z,13.92
2018-09-25T15:31:49.770Z,14.34
2018-09-25T15:36:50.238Z,14.22
2018-09-25T15:41:49.425Z,13.61
2018-09-25T15:46:49.757Z,14.25
2018-09-25T15:51:50.177Z,14.07
2018-09-25T15:56:49.718Z,13.99
2018-09-25T16:01:50.060Z,13.99
2018-09-25T16:06:49.528Z,14.10
2018-09-25T16:11:49.728Z,13.44
2018-09-25T16:16:50.095Z,13.08
2018-09-25T16:21:49.654Z,13.52
2018-09-25T16:26:50.091Z,13.05
2018-09-25T16:31:49.488Z,12.49
2018-09-25T16:36:49.870Z,12.78
2018-09-25T16:41:50.084Z,13.18
2018-09-25T16:46:49.417Z,13.38
2018-09-25T16:51:49.814Z,13.43
2018-09-25T16:56:49.423Z,12.98
2018-09-25T17:01:49.723Z,13.07
2018-09-25T17:06:50.190Z,13.27
2018-09-25T17:11:49.396Z,13.07
2018-09-25T17:16:49.732Z,12.70
2018-09-25T17:21:50.213Z,12.94
2018-09-25T17:26:49.714Z,12.71
2018-09-25T17:31:50.037Z,12.58
2018-09-25T17:36:49.509Z,12.49
2018-09-25T17:41:49.773Z,12.87
2018-09-25T17:46:50.059Z,12.53
2018-09-25T17:51:49.506Z,12.61
2018-09-25T17:56:50.101Z,12.43
2018-09-25T18:01:49.735Z,12.15
2018-09-25T18:06:50.258Z,11.96
2018-09-25T18:11:50.163Z,11.79
2018-09-25T18:16:49.468Z,11.77
2018-09-25T18:21:49.830Z,11.18
2018-09-25T18:26:50.691Z,10.88
2018-09-25T18:31:49.759Z,11.75
2018-09-25T18:36:50.567Z,11.62
2018-09-25T18:41:49.432Z,10.88
2018-09-25T18:46:49.814Z,10.39
2018-09-25T18:51:50.216Z,10.78
2018-09-25T18:56:49.814Z,11.57
2018-09-25T19:01:50.146Z,10.98
2018-09-25T19:06:50.195Z,11.28
2018-09-25T19:11:49.871Z,10.68
2018-09-25T19:16:50.125Z,10.39
2018-09-25T19:21:49.668Z,10.58
2018-09-25T19:26:50.217Z,11.18
2018-09-25T19:31:49.636Z,10.09
2018-09-25T19:36:49.961Z,9.79
2018-09-25T19:41:50.222Z,10.09
2018-09-25T19:46:49.553Z,10.58
2018-09-25T19:51:49.958Z,10.09
2018-09-25T19:56:49.565Z,9.49
2018-09-25T20:01:49.890Z,9.39
2018-09-25T20:06:50.954Z,9.49
2018-09-25T20:11:49.543Z,10.09
2018-09-25T20:16:49.857Z,9.89
2018-09-25T20:21:50.260Z,9.09
2018-09-25T20:26:49.996Z,8.69
2018-09-25T20:31:50.609Z,8.49
2018-09-25T20:36:49.603Z,9.09
2018-09-25T20:41:49.841Z,9.49
2018-09-25T20:46:50.073Z,8.69
2018-09-25T20:51:49.510Z,8.29
2018-09-25T20:56:50.095Z,8.29
2018-09-25T21:01:49.619Z,8.49
2018-09-25T21:06:49.905Z,8.99
2018-09-25T21:11:50.118Z,8.79
2018-09-25T21:16:49.471Z,8.19
2018-09-25T21:21:49.874Z,7.59
2018-09-25T21:26:49.576Z,7.49
2018-09-25T21:31:49.849Z,8.29
2018-09-25T21:36:50.166Z,8.19
2018-09-25T21:41:49.410Z,7.99
2018-09-25T21:46:49.749Z,8.29
2018-09-25T21:51:50.650Z,8.99
2018-09-25T21:56:50.152Z,8.19
2018-09-25T22:01:50.119Z,7.59
2018-09-25T22:06:49.557Z,7.19
2018-09-25T22:11:49.791Z,7.39
2018-09-25T22:16:50.723Z,7.19
2018-09-25T22:21:49.540Z,6.89
2018-09-25T22:26:50.108Z,6.99
2018-09-25T22:31:49.487Z,6.89
2018-09-25T22:36:49.863Z,6.69
2018-09-25T22:41:50.099Z,6.59
2018-09-25T22:46:49.460Z,6.49
2018-09-25T22:51:49.863Z,6.69
2018-09-25T22:56:49.471Z,6.49
2018-09-25T23:01:49.783Z,6.59
2018-09-25T23:06:50.274Z,7.29
2018-09-25T23:11:49.486Z,7.49
2018-09-25T23:16:49.817Z,6.79
2018-09-25T23:21:50.268Z,6.69
2018-09-25T23:26:49.819Z,6.49
2018-09-25T23:31:50.151Z,6.39
2018-09-25T23:36:49.982Z,6.49
2018-09-25T23:41:49.762Z,6.79
2018-09-25T23:46:50.078Z,6.89
2018-09-25T23:51:49.520Z,6.59
2018-09-25T23:56:50.136Z,6.49
